Chuathbaluk, Alaska
Current Conditions -  °F | °C
As of 7:55 PM on Saturday 20 Dec 2014 (Local Time) from PASV Reporting Station
Clear Clear  
Wind Chill: -1°   Ceiling: Unl
Heat Index: -1°   Visibility: 10mi
Dew Point: -5°   Wind: 0mph
Humidity: 87%   Direction: NA
Pressure: 28.89"   Gusts: NA
Location:  61.576°N, 156.056°W
Report Text: PASV 210455Z AUTO 00000KT 10SM CLR M19/M20 A2889 RMK AO2 SLP843 T11861203
Loading
Personal Weather Stations






























Interactive Weather Map New forecast layout! Learn more

10-Day Weather Forecast

Advertisements
Track Severe Weather on mobile